Historyczne dane pomiarowe

Dodano dane terminowe – wersja testowa.

Dane z okresu 1951-2019

Wersja bazy: 1.34 [2019-03-16, lista zmian], aktualizacja planowana na 2019-04-15

Dane meteo z obszaru Polski uzyskane na podstawie danych udostępnionych przez Instytut Meteorologii i Gospodarki Wodnej – Państwowy Instytut Badawczy.

 

Wybierz Datę:    

       

TemperaturaWilgotnośćWiatrCiśnienieOpadyŚniegCzas trwania zjawisk
 Stacja t tx tn tng RH VA  wxwx mslp ppp RRR   cm mm wxwxwxwxwxwxwx
2019-10-31 -2.9 -0.6 -7.5- 30.1 1.5 3.4 4.8 0.0 0.0- 840.4 0.0 0.0 0.0- 0.0 6.7-------
2019-10-30 -6.1 -4.3 -7.8- 89.0 3.5 5.9 4.8 0.0 0.0- 842.1 0.0 0.0 0.0- 0.0 7.0- 1.7- 12.3---
2019-10-29 -3.7 -1.2 -5.0- 99.3 4.6 7.9 9.6 10.7 0.0- 838.0 1.5 0.4 1.1- 0.0---- 24.0---
2019-10-28 -3.0 5.2 -5.4- 97.0 4.8 5.8 10.3 14.5 0.0- 836.9 0.0 0.0 0.0- 0.0 7.8--- 15.8---
2019-10-27 7.0 10.6 4.2- 74.8 7.3 5.6 21.1 24.0 15.5- 836.4 5.3 1.1 4.2- 0.0 5.9 6.3-- 9.3---
2019-10-26 7.8 10.9 4.9- 73.6 7.8 5.3 9.0 13.0 0.0- 841.8 0.0 0.0 0.0- 0.0 8.5-------
2019-10-25 7.1 13.2 5.1- 82.8 8.3 4.5 9.6 12.3 0.0- 841.3 0.0 0.0 0.0- 0.0 5.8--- 4.5---
2019-10-24 12.7 15.5 8.1- 40.3 5.6 5.1 12.1 21.5 3.0- 836.5 0.0 0.0 0.0- 0.0 6.9-------
2019-10-23 9.6 14.1 6.4- 75.8 8.7 6.6 8.9 9.8 1.2- 841.4 0.0 0.0 0.0- 0.0 5.2--- 13.8---
2019-10-22 12.3 14.2 10.2- 51.3 7.3 5.8 4.8 0.0 0.0- 845.2 0.0 0.0 0.0- 0.0 5.7-------
2019-10-21 13.7 16.2 6.9- 46.8 7.3 6.1 6.1 2.5 0.0- 841.7 0.0 0.0 0.0- 0.0 7.9-------
2019-10-20 9.3 13.3 4.6- 72.8 8.2 5.4 10.9 14.7 0.8- 836.2 0.0 0.0 0.0- 0.0 9.0--- 5.0---
2019-10-19 5.8 8.0 4.7- 83.8 7.6 6.6 10.3 16.7 0.0- 834.3 0.3 0.0 0.3- 0.0 2.7--- 6.8---
2019-10-18 6.2 7.9 4.7- 88.3 8.3 7.0 8.8 4.5 0.0- 835.4 0.2 0.1 0.1- 0.0 2.8 1.1-- 12.8---
2019-10-17 4.8 7.8 2.0- 81.9 6.9 6.8 10.3 11.2 0.0- 836.6 0.0 0.0 0.0- 0.0 3.7--- 7.7---
2019-10-16 4.1 8.3 1.8-100.0 8.3 8.0 12.1 22.0 0.7- 832.0 2.9 2.6 0.3- 0.0 0.0 2.9-- 24.0---
2019-10-15 8.4 14.0 6.9- 87.5 9.5 5.5 14.9 24.0 10.0- 833.2 0.6 0.0 0.6- 0.0 5.3--- 12.7---
2019-10-14 12.9 15.7 9.5- 57.6 8.4 1.4 8.9 7.8 4.8- 840.7 0.0 0.0 0.0- 0.0 9.1--- 4.7---
2019-10-13 9.9 12.9 7.4- 83.6 10.2 3.8 11.6 18.3 2.7- 839.7 0.0 0.0 0.0- 0.0 6.2-------
2019-10-12 6.7 8.7 2.9- 88.1 8.6 4.3 14.4 20.8 10.3- 836.2 0.0 0.0 0.0- 0.0 8.8 0.2-- 4.1---
2019-10-11 1.7 3.4 -0.5-100.0 6.9 7.9 13.6 23.5 5.5- 835.8 0.4 0.2 0.2- 0.0 0.0--- 24.0---
2019-10-10 0.3 1.8 -0.7-100.0 6.3 7.6 17.4 24.0 16.7- 830.4 2.9 2.8 0.1- 0.0 0.0 2.8- 3.6 24.0---
2019-10-09 2.5 4.2 0.3- 99.4 7.3 7.3 10.5 14.7 3.7- 829.8 13.1 6.5 6.6- 0.0 5.5 7.2- 0.8 18.8---
2019-10-08 0.0 2.4 -4.3- 99.1 6.1 7.3 9.8 17.7 0.3- 830.4 12.5 5.7 6.8 14 3.7 0.0 10.5-- 20.5---
2019-10-07 -4.3 -1.7 -7.4- 84.4 3.8 3.3 4.9 4.5 0.0- 835.3 0.0 0.0 0.0 14 3.7 8.5--- 0.5---
2019-10-06 -4.1 -0.8 -6.8- 95.5 4.4 6.1 6.3 5.3 0.0- 835.1 0.0 0.0 0.0 15 3.7 7.4--- 15.3---
2019-10-05 -0.6 -0.1 -1.1-100.0 5.9 8.0 12.1 14.0 6.5- 827.6 21.1 20.5 0.6 2 0.0 0.0- 12.3- 24.0---
2019-10-04 -0.9 -0.2 -2.4- 99.9 5.7 7.6 9.1 10.3 0.0- 829.9 4.5 1.9 2.6- 0.0- 0.3 8.1- 24.0---
2019-10-03 -1.8 -0.8 -3.5-100.0 5.4 7.5 16.6 24.0 16.8- 830.3 1.2 1.0 0.2- 0.0 0.0- 0.5- 24.0---
2019-10-02 2.8 8.0 -3.3-100.0 7.7 8.0 13.6 21.5 0.5- 825.3 3.6 3.4 0.2- 0.0 0.0 6.1 0.2- 24.0---
2019-10-01 4.5 7.4 1.8- 99.9 8.5 7.8 14.4 13.0 6.2- 827.6 10.3 0.6 9.7- 0.0 0.0 1.3-- 24.0---
2019-09-30 4.2 7.4 2.0- 99.8 8.3 7.6 25.0 24.0 21.5- 823.7 12.7 12.2 0.0- 0.0 0.0 7.1-- 23.2---
2019-09-29 5.0 6.5 3.1- 98.0 8.5 7.4 12.0 15.4 4.8- 829.7 14.1 0.9 13.2- 0.0 1.2 3.0-- 16.5---
2019-09-28 5.0 7.6 3.6- 99.0 8.6 7.6 10.8 16.1 4.5- 834.8 3.8 2.8 1.0- 0.0 2.5 3.6-- 24.0---
2019-09-27 7.2 8.1 6.0-100.0 10.1 7.8 7.9 0.0 0.0- 834.8 9.3 3.4 5.9- 0.0 0.0 16.7-- 22.4---
2019-09-26 5.5 7.0 3.5- 95.5 8.6 6.8 9.5 6.9 0.0- 834.4 2.0 0.0 2.0- 0.0 6.4--- 10.1---
2019-09-25 6.0 6.9 5.4- 99.8 9.3 7.9 7.8 6.5 1.7- 830.7 4.0 3.8 0.2- 0.0 0.0 7.5-- 23.5---
2019-09-24 7.1 8.7 6.5- 97.6 9.8 6.6 4.1 0.0 0.0- 835.9 0.0 0.0 0.0- 0.0 0.1 0.3-- 11.0---
2019-09-23 6.4 9.4 3.7- 80.0 7.8 4.9 8.3 10.0 0.0- 835.9 0.0 0.0 0.0- 0.0 3.7--- 1.5---
2019-09-22 8.3 12.3 4.8- 58.8 6.4 1.0 7.9 8.8 0.0- 838.5 0.0 0.0 0.0- 0.0 10.4-------
2019-09-21 7.6 10.9 0.2- 67.9 7.0 1.5 4.5 1.0 0.0- 843.9 0.0 0.0 0.0- 0.0 10.6-------
2019-09-20 0.1 1.3 -1.4- 95.9 5.9 5.8 9.6 8.8 0.5- 844.4 0.0 0.0 0.0- 0.0 5.3--- 6.7---
2019-09-19 -1.1 0.0 -2.0- 96.4 5.4 7.4 13.4 22.6 8.0- 841.9 0.7 0.7 0.0- 0.0 4.0- 0.3- 15.0---
2019-09-18 -1.0 1.0 -3.6- 92.0 5.2 4.1 19.3 24.0 10.7- 837.1 0.3 0.2 0.1- 0.0 7.6- 0.2- 10.0---
2019-09-17 1.2 6.5 0.3-100.0 6.7 6.8 20.3 24.0 12.8- 833.2 1.4 1.0 0.4- 0.0 4.4 1.7 0.8- 24.0---
2019-09-16 6.6 10.7 5.2- 93.4 9.1 7.4 16.3 22.8 9.2- 838.3 8.0 7.3 0.7- 0.0 1.0 5.5-- 19.7---
2019-09-15 7.9 11.7 4.3- 81.6 8.7 4.8 13.1 22.0 5.2- 844.0 0.1 0.0 0.1- 0.0 7.6--- 7.3---
2019-09-14 3.9 8.5 1.5- 87.5 7.0 4.6 8.1 9.7 1.8- 850.0 0.0 0.0 0.0- 0.0 8.8--- 6.3---
2019-09-13 8.1 9.9 7.0- 99.9 10.8 7.1 11.1 21.9 1.5- 849.7 0.3 0.0 0.3- 0.0 3.5 0.8-- 20.7---
2019-09-12 7.6 9.8 5.9- 89.3 9.4 5.9 8.1 12.5 0.0- 848.3 0.0 0.0 0.0- 0.0 6.7--- 6.8---
2019-09-11 7.1 10.3 4.3- 71.8 7.1 6.1 6.1 1.2 0.0- 844.2 0.0 0.0 0.0- 0.0 6.7--- 11.1---
2019-09-10 3.7 5.4 2.3- 97.6 7.8 6.8 9.5 9.2 5.4- 837.2 0.1 0.0 0.1- 0.0 2.1 3.3-- 14.2---
2019-09-09 6.2 7.4 4.5- 98.0 9.3 8.0 8.4 7.1 2.2- 832.0 14.6 7.9 6.7- 0.0 0.0 12.4-- 24.0---
2019-09-08 3.7 5.5 1.8- 94.6 7.6 7.1 6.1 6.8 0.0- 837.8 17.1 0.0 17.1- 0.0 1.8 3.6-- 10.4---
2019-09-07 5.5 7.2 4.2- 92.4 8.3 7.9 2.5 0.0 0.0- 839.0 1.9 1.5 0.4- 0.0 0.0 12.8-- 18.1---
2019-09-06 4.4 7.6 1.9- 95.1 8.0 6.9 5.9 3.2 0.2- 842.8 3.2 0.0 3.2- 0.0 2.5--- 8.5---
2019-09-05 8.5 11.2 6.4- 75.8 8.4 4.1 7.9 9.2 0.8- 838.5 0.3 0.0 0.3- 0.0 6.2--- 3.9---
2019-09-04 9.1 11.6 7.0- 65.6 7.6 1.9 8.8 8.0 0.0- 841.1 0.0 0.0 0.0- 0.0 11.5-------
2019-09-03 6.1 9.3 3.6- 72.8 6.8 4.3 5.9 2.2 0.0- 844.2 0.0 0.0 0.0- 0.0 7.9 0.6------
2019-09-02 6.1 15.8 2.9- 94.8 9.1 7.6 10.6 17.3 0.0- 840.9 6.1 6.1 0.0- 0.0 0.1 7.9-- 15.1---
82.6 ms

 

Źródłem pochodzenia danych jest Instytut Meteorologii i Gospodarki Wodnej – Państwowy Instytut Badawczy. Dane Instytutu Meteorologii i Gospodarki Wodnej – Państwowego Instytutu Badawczego zostały przetworzone.

Dane źródłowe można odnaleźć na stronie https://dane.imgw.pl